createdAt,value
2023-03-28T00:01:39.265Z,2.40
2023-03-28T00:04:41.341Z,2.40
2023-03-28T00:07:43.633Z,2.40
2023-03-28T00:10:46.546Z,2.50
2023-03-28T00:13:57.531Z,2.50
2023-03-28T00:17:01.882Z,2.50
2023-03-28T00:20:05.957Z,2.50
2023-03-28T00:23:09.976Z,2.50
2023-03-28T00:26:13.083Z,2.60
2023-03-28T00:29:20.698Z,2.50
2023-03-28T00:32:22.569Z,2.50
2023-03-28T00:35:24.721Z,2.50
2023-03-28T00:38:28.081Z,2.40
2023-03-28T00:41:33.087Z,2.30
2023-03-28T00:44:45.901Z,2.30
2023-03-28T00:48:01.960Z,2.30
2023-03-28T00:51:05.410Z,2.20
2023-03-28T00:54:12.972Z,2.20
2023-03-28T00:57:16.546Z,2.20
2023-03-28T01:00:20.976Z,2.10
2023-03-28T01:03:28.816Z,2.10
2023-03-28T01:06:33.891Z,2.00
2023-03-28T01:09:36.282Z,1.80
2023-03-28T01:12:40.045Z,1.80
2023-03-28T01:15:43.275Z,1.80
2023-03-28T01:18:51.567Z,1.80
2023-03-28T01:22:13.775Z,1.80
2023-03-28T01:25:26.960Z,1.70
2023-03-28T01:29:07.275Z,1.70
2023-03-28T01:32:12.202Z,1.60
2023-03-28T01:36:34.393Z,1.60
2023-03-28T01:40:11.209Z,1.50
2023-03-28T01:43:23.529Z,1.30
2023-03-28T01:46:36.664Z,1.40
2023-03-28T01:49:53.288Z,1.30
2023-03-28T01:53:10.222Z,1.30
2023-03-28T01:56:28.141Z,1.30
2023-03-28T01:59:38.299Z,1.40
2023-03-28T02:03:11.555Z,1.40
2023-03-28T02:06:21.591Z,1.40
2023-03-28T02:09:26.253Z,1.30
2023-03-28T02:12:48.610Z,1.30
2023-03-28T02:16:15.066Z,1.30
2023-03-28T02:19:38.476Z,1.30
2023-03-28T02:23:04.115Z,1.30
2023-03-28T02:26:37.147Z,1.30
2023-03-28T02:29:54.329Z,1.30
2023-03-28T02:33:30.929Z,1.30
2023-03-28T02:37:04.354Z,1.30
2023-03-28T02:40:27.681Z,1.50
2023-03-28T02:43:44.806Z,1.60
2023-03-28T02:47:09.768Z,1.50
2023-03-28T02:50:33.808Z,1.60
2023-03-28T02:53:59.342Z,1.50
2023-03-28T02:57:10.374Z,1.50
2023-03-28T03:00:20.465Z,1.50
2023-03-28T03:03:23.642Z,1.30
2023-03-28T03:06:25.579Z,1.30
2023-03-28T03:09:27.837Z,1.20
2023-03-28T03:12:29.632Z,1.10
2023-03-28T03:15:35.362Z,1.10
2023-03-28T03:18:52.444Z,1.00
2023-03-28T03:21:54.160Z,1.00
2023-03-28T03:25:04.306Z,0.90
2023-03-28T03:28:07.092Z,1.10
2023-03-28T03:31:08.899Z,1.00
2023-03-28T03:34:13.483Z,1.00
2023-03-28T03:37:20.654Z,1.20
2023-03-28T03:40:22.392Z,1.20
2023-03-28T03:43:25.075Z,1.20
2023-03-28T03:46:26.795Z,1.10
2023-03-28T03:49:28.626Z,1.10
2023-03-28T03:52:31.899Z,1.00
2023-03-28T03:55:33.745Z,1.00
2023-03-28T03:58:35.793Z,1.10
2023-03-28T04:01:43.954Z,1.10
2023-03-28T04:05:11.439Z,1.10
2023-03-28T04:08:35.602Z,1.00
2023-03-28T04:11:38.652Z,1.00
2023-03-28T04:14:40.473Z,1.00
2023-03-28T04:18:07.565Z,1.10
2023-03-28T04:21:16.909Z,1.20
2023-03-28T04:24:24.196Z,1.20
2023-03-28T04:27:47.524Z,1.30
2023-03-28T04:30:53.287Z,1.30
2023-03-28T04:33:55.502Z,1.40
2023-03-28T04:37:02.203Z,1.40
2023-03-28T04:40:12.445Z,1.50
2023-03-28T04:43:31.768Z,1.60
2023-03-28T04:46:33.540Z,1.60
2023-03-28T04:49:43.563Z,1.60
2023-03-28T04:52:45.937Z,1.60
2023-03-28T04:55:50.662Z,1.70
2023-03-28T04:58:57.856Z,1.70
2023-03-28T05:02:02.144Z,1.70
2023-03-28T05:05:26.233Z,1.70
2023-03-28T05:08:29.237Z,1.80
2023-03-28T05:17:11.404Z,1.80
2023-03-28T05:20:32.205Z,1.70
2023-03-28T05:23:34.314Z,1.80
2023-03-28T05:26:40.746Z,1.70
2023-03-28T05:29:44.115Z,1.70
2023-03-28T05:32:47.574Z,1.80
2023-03-28T05:35:50.227Z,1.80
2023-03-28T05:38:52.118Z,1.80
2023-03-28T05:41:55.827Z,1.80
2023-03-28T05:44:57.572Z,1.80
2023-03-28T05:48:18.444Z,1.80
2023-03-28T05:51:20.369Z,1.80
2023-03-28T05:54:22.120Z,1.80
2023-03-28T05:57:25.415Z,1.80
2023-03-28T06:00:28.205Z,1.80
2023-03-28T06:03:31.978Z,1.70
2023-03-28T06:06:39.519Z,1.80
2023-03-28T06:09:42.841Z,1.80
2023-03-28T06:12:45.867Z,1.80
2023-03-28T06:15:47.853Z,1.80
2023-03-28T06:18:50.757Z,1.70
2023-03-28T06:21:53.997Z,1.80
2023-03-28T06:24:56.025Z,1.90
2023-03-28T06:28:02.977Z,1.80
2023-03-28T06:31:05.864Z,1.90
2023-03-28T06:34:07.984Z,1.80
2023-03-28T06:37:18.628Z,2.00
2023-03-28T06:40:29.053Z,2.00
2023-03-28T06:43:31.474Z,2.00
2023-03-28T06:46:43.340Z,2.10
2023-03-28T06:49:46.965Z,2.20
2023-03-28T06:53:07.461Z,2.20
2023-03-28T06:56:09.534Z,2.30
2023-03-28T06:59:11.687Z,2.40
2023-03-28T07:02:13.747Z,2.50
2023-03-28T07:05:17.185Z,2.60
2023-03-28T07:08:21.372Z,2.70
2023-03-28T07:11:23.347Z,2.80
2023-03-28T07:14:26.194Z,2.90
2023-03-28T07:17:28.002Z,3.00
2023-03-28T07:20:29.920Z,3.10
2023-03-28T07:23:31.697Z,3.20
2023-03-28T07:26:33.820Z,3.30
2023-03-28T07:29:36.241Z,3.50
2023-03-28T07:32:49.945Z,3.60
2023-03-28T07:35:56.299Z,3.60
2023-03-28T07:38:58.123Z,3.80
2023-03-28T07:42:00.041Z,3.80
2023-03-28T07:45:01.828Z,3.90
2023-03-28T07:48:04.996Z,3.90
2023-03-28T07:51:08.162Z,3.80
2023-03-28T07:54:17.386Z,3.90
2023-03-28T07:57:20.219Z,4.10
2023-03-28T08:00:35.472Z,4.30
2023-03-28T08:04:03.583Z,4.30
2023-03-28T08:07:28.504Z,4.40
2023-03-28T08:10:30.565Z,4.50
2023-03-28T08:13:32.312Z,4.50
2023-03-28T08:16:43.175Z,4.60
2023-03-28T08:19:45.421Z,4.70
2023-03-28T08:22:47.234Z,4.80
2023-03-28T08:26:24.760Z,4.90
2023-03-28T08:29:29.358Z,5.20
2023-03-28T08:32:31.172Z,5.10
2023-03-28T08:35:33.176Z,5.40
2023-03-28T08:38:39.683Z,5.50
2023-03-28T08:42:16.178Z,5.60
2023-03-28T08:45:36.809Z,5.90
2023-03-28T08:48:44.366Z,5.80
2023-03-28T08:51:52.801Z,5.90
2023-03-28T08:55:06.310Z,6.00
2023-03-28T08:58:19.661Z,6.00
2023-03-28T09:01:23.527Z,6.20
2023-03-28T09:04:35.569Z,6.20
2023-03-28T09:08:18.513Z,6.30
2023-03-28T09:11:57.224Z,6.40
2023-03-28T09:15:20.509Z,6.70
2023-03-28T09:18:37.722Z,6.70
2023-03-28T09:22:04.919Z,6.70
2023-03-28T09:25:18.625Z,6.70
2023-03-28T09:28:47.922Z,6.70
2023-03-28T09:32:08.010Z,7.40
2023-03-28T09:35:24.187Z,7.90
2023-03-28T09:38:33.047Z,8.00
2023-03-28T09:41:52.536Z,7.80
2023-03-28T09:45:47.001Z,7.60
2023-03-28T09:48:55.078Z,8.00
2023-03-28T09:52:00.768Z,8.20
2023-03-28T09:55:04.101Z,7.90
2023-03-28T09:58:08.315Z,7.80
2023-03-28T10:01:43.850Z,7.50
2023-03-28T10:05:43.170Z,7.70
2023-03-28T10:09:15.448Z,7.70
2023-03-28T10:12:33.657Z,7.60
2023-03-28T10:15:41.874Z,7.50
2023-03-28T10:19:10.403Z,7.60
2023-03-28T10:22:45.750Z,7.50
2023-03-28T10:25:52.933Z,7.70
2023-03-28T10:29:03.787Z,8.30
2023-03-28T10:36:49.342Z,7.90
2023-03-28T10:50:02.990Z,7.70
2023-03-28T11:03:08.882Z,8.20
2023-03-28T11:06:32.749Z,8.00
2023-03-28T11:09:47.037Z,8.10
2023-03-28T11:13:35.875Z,8.30
2023-03-28T11:16:59.394Z,8.20
2023-03-28T11:20:28.315Z,9.20
2023-03-28T11:24:20.137Z,9.70
2023-03-28T11:28:15.305Z,9.50
2023-03-28T11:31:27.329Z,9.50
2023-03-28T11:35:00.519Z,10.20
2023-03-28T11:38:17.707Z,9.80
2023-03-28T11:46:30.046Z,9.60
2023-03-28T11:49:36.072Z,9.60
2023-03-28T11:52:54.581Z,10.00
2023-03-28T11:56:23.376Z,9.90
2023-03-28T12:00:23.037Z,10.40
2023-03-28T12:03:58.911Z,10.50
2023-03-28T12:07:20.165Z,10.90
2023-03-28T12:10:27.902Z,11.00
2023-03-28T12:14:11.536Z,10.60
2023-03-28T12:17:23.245Z,10.70
2023-03-28T12:20:47.360Z,11.00
2023-03-28T12:24:06.975Z,11.20
2023-03-28T12:27:42.157Z,11.40
2023-03-28T12:31:18.037Z,11.30
2023-03-28T12:34:35.057Z,11.20
2023-03-28T12:38:11.197Z,11.10
2023-03-28T12:41:19.055Z,11.30
2023-03-28T12:44:27.010Z,11.20
2023-03-28T12:47:34.679Z,11.10
2023-03-28T12:50:55.753Z,11.20
2023-03-28T12:54:02.367Z,11.20
2023-03-28T12:57:07.279Z,11.50
2023-03-28T13:00:31.681Z,11.20
2023-03-28T13:04:22.272Z,11.20
2023-03-28T13:07:48.669Z,11.50
2023-03-28T13:11:06.437Z,11.20
2023-03-28T13:14:37.424Z,11.30
2023-03-28T13:17:46.970Z,11.30
2023-03-28T13:20:51.876Z,11.40
2023-03-28T13:23:53.665Z,11.10
2023-03-28T13:26:55.338Z,11.50
2023-03-28T13:30:14.446Z,11.60
2023-03-28T13:33:25.168Z,12.00
2023-03-28T13:36:29.592Z,12.30
2023-03-28T13:39:33.319Z,12.60
2023-03-28T13:42:35.420Z,12.70
2023-03-28T13:45:37.455Z,13.20
2023-03-28T13:49:04.569Z,13.60
2023-03-28T13:52:17.822Z,13.60
2023-03-28T13:55:22.960Z,14.00
2023-03-28T13:58:24.825Z,14.30
2023-03-28T14:01:34.482Z,13.30
2023-03-28T14:04:36.539Z,12.70
2023-03-28T14:07:38.260Z,12.20
2023-03-28T14:10:42.947Z,12.10
2023-03-28T14:13:46.071Z,11.80
2023-03-28T14:16:47.826Z,11.50
2023-03-28T14:19:58.944Z,11.40
2023-03-28T14:23:01.716Z,11.50
2023-03-28T14:26:15.235Z,11.40
2023-03-28T14:29:19.268Z,11.50
2023-03-28T14:32:32.181Z,11.30
2023-03-28T14:35:35.803Z,11.10
2023-03-28T14:38:39.519Z,10.90
2023-03-28T14:41:43.352Z,11.80
2023-03-28T14:44:49.290Z,12.70
2023-03-28T14:47:51.601Z,13.50
2023-03-28T14:50:54.387Z,13.80
2023-03-28T14:53:56.761Z,13.80
2023-03-28T14:56:59.819Z,12.80
2023-03-28T15:00:02.405Z,12.30
2023-03-28T15:03:12.774Z,12.30
2023-03-28T15:06:17.502Z,12.50
2023-03-28T15:09:29.964Z,12.50
2023-03-28T15:12:39.928Z,13.10
2023-03-28T15:15:44.550Z,13.70
2023-03-28T15:19:00.505Z,13.80
2023-03-28T15:22:08.265Z,13.50
2023-03-28T15:25:13.783Z,15.00
2023-03-28T15:28:18.131Z,14.40
2023-03-28T15:31:21.179Z,14.50
2023-03-28T15:34:29.307Z,14.80
2023-03-28T15:37:41.493Z,16.00
2023-03-28T15:40:48.561Z,15.30
2023-03-28T15:43:54.352Z,15.60
2023-03-28T15:47:03.108Z,15.40
2023-03-28T15:50:12.888Z,15.50
2023-03-28T15:53:16.433Z,14.80
2023-03-28T15:56:33.863Z,15.00
2023-03-28T15:59:43.726Z,15.10
2023-03-28T16:02:46.654Z,14.10
2023-03-28T16:05:54.239Z,13.30
2023-03-28T16:09:09.146Z,12.50
2023-03-28T16:12:15.430Z,12.40
2023-03-28T16:15:18.232Z,11.90
2023-03-28T16:18:29.184Z,11.80
2023-03-28T16:21:35.292Z,11.70
2023-03-28T16:24:37.050Z,11.50
2023-03-28T16:27:38.968Z,11.50
2023-03-28T16:30:41.563Z,11.40
2023-03-28T16:33:43.304Z,11.40
2023-03-28T16:36:45.023Z,11.10
2023-03-28T16:39:47.432Z,11.10
2023-03-28T16:42:49.672Z,10.90
2023-03-28T16:45:51.690Z,10.90
2023-03-28T16:48:53.445Z,10.80
2023-03-28T16:51:55.752Z,10.60
2023-03-28T16:54:57.538Z,10.70
2023-03-28T16:57:59.546Z,10.50
2023-03-28T17:01:19.389Z,10.50
2023-03-28T17:04:21.348Z,10.30
2023-03-28T17:07:23.277Z,10.30
2023-03-28T17:10:25.396Z,10.30
2023-03-28T17:13:28.621Z,10.20
2023-03-28T17:16:30.773Z,10.10
2023-03-28T17:19:32.959Z,10.10
2023-03-28T17:22:34.668Z,10.10
2023-03-28T17:25:48.144Z,9.80
2023-03-28T17:28:58.321Z,9.80
2023-03-28T17:32:01.628Z,9.90
2023-03-28T17:35:04.085Z,9.90
2023-03-28T17:38:05.800Z,9.70
2023-03-28T17:41:08.239Z,9.70
2023-03-28T17:44:10.076Z,9.60
2023-03-28T17:47:12.363Z,9.60
2023-03-28T17:50:14.082Z,9.50
2023-03-28T17:53:16.262Z,9.60
2023-03-28T17:56:18.089Z,9.50
2023-03-28T17:59:21.427Z,9.50
2023-03-28T18:02:23.809Z,9.40
2023-03-28T18:05:41.507Z,9.40
2023-03-28T18:08:44.712Z,9.40
2023-03-28T18:11:47.980Z,9.30
2023-03-28T18:14:49.823Z,9.10
2023-03-28T18:17:51.908Z,9.00
2023-03-28T18:20:54.145Z,8.80
2023-03-28T18:23:55.887Z,8.70
2023-03-28T18:26:59.066Z,8.70
2023-03-28T18:30:06.380Z,8.70
2023-03-28T18:33:08.408Z,8.60
2023-03-28T18:36:11.731Z,8.70
2023-03-28T18:39:13.938Z,8.70
2023-03-28T18:42:16.192Z,8.60
2023-03-28T18:45:17.949Z,8.50
2023-03-28T18:48:19.971Z,8.60
2023-03-28T18:51:21.815Z,8.50
2023-03-28T18:54:23.518Z,8.50
2023-03-28T18:57:25.555Z,8.50
2023-03-28T19:00:27.689Z,8.50
2023-03-28T19:03:32.124Z,8.50
2023-03-28T19:06:35.714Z,8.60
2023-03-28T19:09:38.140Z,8.60
2023-03-28T19:12:41.142Z,8.50
2023-03-28T19:15:43.123Z,8.50
2023-03-28T19:18:49.409Z,8.40
2023-03-28T19:21:55.164Z,8.20
2023-03-28T19:24:57.031Z,8.10
2023-03-28T19:27:58.768Z,8.20
2023-03-28T19:31:03.891Z,8.00
2023-03-28T19:34:07.768Z,7.90
2023-03-28T19:37:09.481Z,8.10
2023-03-28T19:40:16.304Z,8.20
2023-03-28T19:43:20.971Z,8.30
2023-03-28T19:46:33.329Z,8.10
2023-03-28T19:49:38.088Z,8.00
2023-03-28T19:52:39.876Z,8.00
2023-03-28T19:55:41.592Z,7.90
2023-03-28T19:58:43.395Z,8.20
2023-03-28T20:01:45.308Z,8.20
2023-03-28T20:04:47.086Z,8.20
2023-03-28T20:07:48.819Z,8.00
2023-03-28T20:10:51.893Z,7.50
2023-03-28T20:13:53.591Z,7.80
2023-03-28T20:16:55.422Z,7.90
2023-03-28T20:19:57.108Z,7.70
2023-03-28T20:22:59.808Z,7.70
2023-03-28T20:26:14.065Z,7.60
2023-03-28T20:29:15.826Z,7.50
2023-03-28T20:32:17.544Z,7.50
2023-03-28T20:35:19.328Z,7.40
2023-03-28T20:38:21.353Z,7.40
2023-03-28T20:41:24.085Z,7.40
2023-03-28T20:44:29.793Z,7.40
2023-03-28T20:47:31.624Z,7.30
2023-03-28T20:50:34.180Z,7.40
2023-03-28T20:53:35.947Z,7.30
2023-03-28T20:56:37.868Z,7.30
2023-03-28T20:59:40.528Z,7.40
2023-03-28T21:02:42.246Z,6.50
2023-03-28T21:05:45.980Z,7.20
2023-03-28T21:08:50.094Z,7.10
2023-03-28T21:11:52.221Z,7.10
2023-03-28T21:14:55.509Z,6.90
2023-03-28T21:17:58.596Z,6.80
2023-03-28T21:21:00.715Z,6.60
2023-03-28T21:24:03.653Z,6.50
2023-03-28T21:27:05.378Z,6.50
2023-03-28T21:30:08.376Z,6.40
2023-03-28T21:33:15.931Z,6.50
2023-03-28T21:36:19.504Z,6.40
2023-03-28T21:39:21.545Z,6.30
2023-03-28T21:42:23.262Z,6.30
2023-03-28T21:45:24.960Z,6.30
2023-03-28T21:48:27.083Z,6.20
2023-03-28T21:51:29.990Z,6.20
2023-03-28T21:54:32.011Z,6.10
2023-03-28T21:57:33.828Z,6.20
2023-03-28T22:00:35.554Z,6.20
2023-03-28T22:03:38.244Z,6.10
2023-03-28T22:06:39.948Z,6.00
2023-03-28T22:09:41.656Z,6.00
2023-03-28T22:12:44.799Z,6.00
2023-03-28T22:15:46.708Z,6.00
2023-03-28T22:18:50.061Z,6.00
2023-03-28T22:21:52.145Z,6.00
2023-03-28T22:24:58.512Z,6.00
2023-03-28T22:28:05.489Z,6.00
2023-03-28T22:31:07.533Z,5.20
2023-03-28T22:34:09.725Z,6.00
2023-03-28T22:37:11.409Z,5.90
2023-03-28T22:40:13.713Z,6.00
2023-03-28T22:43:15.992Z,5.90
2023-03-28T22:46:18.097Z,5.90
2023-03-28T22:49:22.110Z,5.90
2023-03-28T22:52:26.056Z,5.90
2023-03-28T22:55:28.376Z,6.00
2023-03-28T22:58:30.144Z,5.90
2023-03-28T23:01:31.901Z,6.00
2023-03-28T23:04:34.507Z,6.00
2023-03-28T23:07:37.327Z,6.00
2023-03-28T23:10:40.415Z,5.90
2023-03-28T23:13:42.085Z,5.90
2023-03-28T23:16:44.581Z,6.00
2023-03-28T23:19:48.219Z,6.00
2023-03-28T23:22:51.826Z,5.90
2023-03-28T23:25:53.510Z,5.80
2023-03-28T23:28:55.227Z,5.90
2023-03-28T23:31:56.897Z,5.80
2023-03-28T23:34:58.688Z,5.80
2023-03-28T23:38:00.375Z,5.60
2023-03-28T23:41:02.343Z,5.60
2023-03-28T23:44:04.425Z,5.70
2023-03-28T23:47:06.119Z,5.70
2023-03-28T23:50:09.300Z,5.60
2023-03-28T23:53:10.991Z,5.70
2023-03-28T23:56:12.725Z,5.60
2023-03-28T23:59:14.475Z,5.60
